Time;durP1;ratioP1;P1;durP2;ratioP2;P2;SDS_P1;SDS_P2;PMS_P1;PMS_P2;Temp;Humidity;BMP_temperature;BMP_pressure;BME280_temperature;BME280_humidity;BME280_pressure;Samples;Min_cycle;Max_cycle;Signal;HPM_P1;HPM_P2
2021/05/02 00:00:08;;;;;;;98.93;39.22;;;6.80;96.60;;;;;;4982444;28;20090;-66
2021/05/02 00:02:34;;;;;;;108.65;40.38;;;6.70;96.60;;;;;;4983347;28;20030;-66
2021/05/02 00:05:00;;;;;;;91.90;36.80;;;6.70;96.60;;;;;;4954524;28;20031;-66
2021/05/02 00:07:26;;;;;;;69.13;32.90;;;6.70;96.70;;;;;;4983657;28;20498;-67
2021/05/02 00:09:52;;;;;;;84.88;35.05;;;6.60;96.70;;;;;;4981932;28;20034;-67
2021/05/02 00:12:18;;;;;;;81.10;35.20;;;6.60;96.80;;;;;;4986158;28;20042;-67
2021/05/02 00:14:44;;;;;;;67.97;32.63;;;6.60;96.80;;;;;;4982165;28;20031;-67
2021/05/02 00:17:10;;;;;;;83.57;35.85;;;6.60;96.80;;;;;;4988403;28;20478;-66
2021/05/02 00:19:38;;;;;;;99.97;35.30;;;6.60;96.80;;;;;;4985223;28;20273;-67
2021/05/02 00:22:04;;;;;;;88.35;37.78;;;6.50;96.80;;;;;;4985225;28;20519;-67
2021/05/02 00:24:31;;;;;;;100.45;37.75;;;6.50;96.80;;;;;;4986910;28;20045;-66
2021/05/02 00:26:57;;;;;;;97.97;39.30;;;6.50;96.80;;;;;;4980209;28;20033;-66
2021/05/02 00:29:23;;;;;;;101.05;39.80;;;6.50;96.80;;;;;;4988867;28;20034;-66
2021/05/02 00:31:50;;;;;;;111.05;40.33;;;6.50;96.80;;;;;;4979810;28;20406;-66
2021/05/02 00:34:15;;;;;;;106.22;40.05;;;6.40;96.80;;;;;;4986105;28;20033;-67
2021/05/02 00:36:42;;;;;;;103.68;39.78;;;6.40;96.80;;;;;;4986124;28;20034;-66
2021/05/02 00:39:07;;;;;;;110.20;39.45;;;6.30;96.90;;;;;;4983327;28;20125;-67
2021/05/02 00:41:35;;;;;;;124.65;41.88;;;6.30;96.90;;;;;;4985170;28;20098;-68
2021/05/02 00:44:07;;;;;;;122.40;41.17;;;6.20;96.90;;;;;;4982228;28;20034;-67
2021/05/02 00:46:38;;;;;;;110.03;40.28;;;6.20;97.00;;;;;;4970539;28;20034;-67
2021/05/02 00:49:27;;;;;;;113.68;39.35;;;6.10;97.00;;;;;;4985496;28;20038;-67
2021/05/02 00:51:58;;;;;;;102.70;38.10;;;6.10;97.00;;;;;;4982931;28;20490;-67
2021/05/02 00:54:32;;;;;;;114.00;39.60;;;6.10;97.00;;;;;;4986875;28;20121;-67
2021/05/02 00:57:03;;;;;;;122.18;40.97;;;6.10;97.00;;;;;;4979995;28;20117;-67
2021/05/02 00:59:38;;;;;;;136.35;42.50;;;6.10;97.10;;;;;;4980167;28;20133;-67
2021/05/02 01:02:04;;;;;;;123.72;43.25;;;6.00;97.10;;;;;;4985226;28;20088;-67
2021/05/02 01:04:32;;;;;;;140.18;45.33;;;6.00;97.10;;;;;;4984627;28;20384;-67
2021/05/02 01:07:04;;;;;;;157.57;47.15;;;6.00;97.20;;;;;;4990552;28;20026;-67
2021/05/02 01:09:30;;;;;;;160.73;46.33;;;6.00;97.20;;;;;;4989238;28;20505;-66
2021/05/02 01:11:58;;;;;;;139.90;45.80;;;6.00;97.20;;;;;;4980022;28;20384;-67
2021/05/02 01:14:25;;;;;;;153.18;46.63;;;5.90;97.10;;;;;;4982050;28;20031;-67
2021/05/02 01:16:54;;;;;;;146.30;46.38;;;5.80;97.10;;;;;;4976428;28;20290;-66
2021/05/02 01:19:20;;;;;;;149.35;47.83;;;5.80;97.10;;;;;;4975041;28;20414;-67
2021/05/02 01:21:49;;;;;;;158.68;48.17;;;5.80;97.20;;;;;;4988022;28;20165;-67
2021/05/02 01:24:15;;;;;;;155.80;46.83;;;5.80;97.20;;;;;;4981633;28;20042;-67
2021/05/02 01:26:46;;;;;;;170.27;48.38;;;5.70;97.20;;;;;;4990475;28;20396;-66
2021/05/02 01:29:14;;;;;;;157.63;46.15;;;5.80;97.20;;;;;;4988206;28;20491;-67
2021/05/02 01:31:40;;;;;;;160.82;47.33;;;5.70;97.10;;;;;;4989704;28;20034;-66
2021/05/02 01:34:06;;;;;;;177.50;52.75;;;5.70;97.10;;;;;;4994156;28;20133;-67
2021/05/02 01:36:32;;;;;;;195.38;54.00;;;5.80;97.30;;;;;;4986729;28;20073;-66
2021/05/02 01:39:02;;;;;;;196.50;53.50;;;5.90;97.30;;;;;;4981105;28;20093;-67
2021/05/02 01:41:28;;;;;;;191.82;53.60;;;5.90;97.30;;;;;;4987787;28;20085;-67
2021/05/02 01:43:54;;;;;;;212.27;56.53;;;5.80;97.30;;;;;;4989222;28;20443;-67
2021/05/02 01:46:51;;;;;;;199.55;56.72;;;5.80;97.30;;;;;;4993136;28;20064;-66
2021/05/02 01:49:20;;;;;;;235.82;56.22;;;5.90;97.30;;;;;;4982117;28;20113;-67
2021/05/02 01:51:46;;;;;;;215.15;59.40;;;5.80;97.30;;;;;;4977414;28;20023;-67
2021/05/02 01:54:14;;;;;;;215.90;57.78;;;5.90;97.40;;;;;;4993233;28;20466;-67
2021/05/02 01:56:41;;;;;;;198.18;57.63;;;5.90;97.30;;;;;;4983414;28;20061;-66
2021/05/02 01:59:07;;;;;;;198.38;57.22;;;5.80;97.30;;;;;;4989189;28;20034;-67
2021/05/02 02:01:33;;;;;;;187.98;54.45;;;5.70;97.30;;;;;;4987612;28;20085;-67
2021/05/02 02:04:02;;;;;;;179.25;54.88;;;5.70;97.20;;;;;;4990145;28;20022;-67
2021/05/02 02:06:29;;;;;;;179.75;54.53;;;5.60;97.30;;;;;;4985964;28;20110;-66
2021/05/02 02:08:58;;;;;;;183.60;55.28;;;5.60;97.30;;;;;;4986621;28;20696;-67
2021/05/02 02:11:28;;;;;;;189.90;54.63;;;5.60;97.20;;;;;;4992406;28;20066;-67
2021/05/02 02:13:54;;;;;;;180.68;53.80;;;5.60;97.20;;;;;;4983948;28;20030;-67
2021/05/02 02:16:22;;;;;;;168.27;53.63;;;5.60;97.20;;;;;;4974820;28;20458;-67
2021/05/02 02:18:48;;;;;;;171.98;52.72;;;5.50;97.10;;;;;;4981484;28;20038;-66
2021/05/02 02:21:16;;;;;;;171.48;51.75;;;5.50;97.10;;;;;;4986769;28;20041;-67
2021/05/02 02:23:48;;;;;;;199.95;54.08;;;5.40;97.10;;;;;;4994528;28;20037;-66
2021/05/02 02:26:40;;;;;;;200.15;55.15;;;5.40;97.10;;;;;;4993046;28;20133;-66
2021/05/02 02:29:08;;;;;;;193.05;53.17;;;5.40;97.10;;;;;;4950732;28;20042;-66
2021/05/02 02:31:35;;;;;;;182.82;54.72;;;5.40;97.10;;;;;;4988906;28;20069;-67
2021/05/02 02:34:04;;;;;;;196.23;54.70;;;5.30;97.20;;;;;;4980450;28;20253;-66
2021/05/02 02:36:31;;;;;;;191.35;54.33;;;5.30;97.20;;;;;;4984900;28;20023;-65
2021/05/02 02:38:58;;;;;;;180.43;53.00;;;5.20;97.20;;;;;;4984519;28;20035;-67
2021/05/02 02:41:25;;;;;;;165.55;50.97;;;5.20;97.30;;;;;;4984919;28;20483;-67
2021/05/02 02:43:58;;;;;;;190.25;54.13;;;5.10;97.20;;;;;;4980084;28;20514;-67
2021/05/02 02:46:25;;;;;;;181.32;55.05;;;5.10;97.30;;;;;;4989007;28;20027;-68
2021/05/02 02:48:54;;;;;;;187.82;53.47;;;5.10;97.30;;;;;;4993674;28;20035;-67
2021/05/02 02:51:21;;;;;;;191.68;55.95;;;5.10;97.20;;;;;;4989299;28;20026;-67
2021/05/02 02:53:49;;;;;;;181.77;55.03;;;5.10;97.20;;;;;;4988188;28;20045;-67
2021/05/02 02:56:21;;;;;;;175.70;53.17;;;5.10;97.30;;;;;;4991349;28;20121;-66
2021/05/02 02:58:57;;;;;;;189.48;55.22;;;5.00;97.20;;;;;;4991811;28;20034;-68
2021/05/02 03:01:26;;;;;;;177.20;54.17;;;5.00;97.20;;;;;;4991614;28;20484;-67
2021/05/02 03:04:01;;;;;;;177.05;53.33;;;5.00;97.10;;;;;;4986041;28;20027;-67
2021/05/02 03:06:27;;;;;;;173.98;53.15;;;5.00;97.10;;;;;;4980634;28;20027;-67
2021/05/02 03:08:55;;;;;;;176.10;55.08;;;5.00;97.10;;;;;;4992745;28;20475;-67
2021/05/02 03:11:23;;;;;;;172.40;53.90;;;4.90;97.20;;;;;;4991613;28;20038;-67
2021/05/02 03:13:50;;;;;;;186.63;54.97;;;5.00;97.10;;;;;;4988021;28;20021;-67
2021/05/02 03:16:23;;;;;;;176.27;54.13;;;4.90;97.10;;;;;;4982100;28;20022;-67
2021/05/02 03:19:21;;;;;;;195.30;55.85;;;4.80;97.10;;;;;;4985975;28;20030;-68
2021/05/02 03:22:08;;;;;;;196.85;55.72;;;4.80;97.10;;;;;;4984943;28;20034;-67
2021/05/02 03:24:38;;;;;;;195.23;55.30;;;4.80;97.20;;;;;;4991175;28;20105;-67
2021/05/02 03:27:14;;;;;;;182.90;55.72;;;4.80;97.20;;;;;;4986881;28;20607;-67
2021/05/02 03:29:40;;;;;;;196.43;56.17;;;4.80;97.20;;;;;;4964330;28;20501;-67
2021/05/02 03:32:17;;;;;;;200.20;55.05;;;4.90;97.30;;;;;;4991093;28;20041;-67
2021/05/02 03:34:43;;;;;;;190.07;54.05;;;4.80;97.30;;;;;;4975885;28;20056;-67
2021/05/02 03:37:18;;;;;;;180.40;56.10;;;4.80;97.30;;;;;;4980079;28;20106;-67
2021/05/02 03:39:48;;;;;;;187.40;55.22;;;4.70;97.20;;;;;;4978879;28;20022;-67
2021/05/02 03:42:15;;;;;;;196.65;55.42;;;4.70;97.20;;;;;;4988976;28;20022;-67
2021/05/02 03:44:41;;;;;;;186.63;54.50;;;4.70;97.30;;;;;;4989459;28;20026;-67
2021/05/02 03:47:06;;;;;;;191.27;56.08;;;4.70;97.30;;;;;;4986212;28;20523;-67
2021/05/02 03:49:34;;;;;;;182.55;54.10;;;4.70;97.30;;;;;;4972688;28;20069;-67
2021/05/02 03:52:00;;;;;;;181.45;53.47;;;4.70;97.30;;;;;;4990053;28;20034;-67
2021/05/02 03:54:25;;;;;;;188.00;53.22;;;4.60;97.30;;;;;;4989210;28;20034;-67
2021/05/02 03:56:52;;;;;;;170.38;53.33;;;4.60;97.30;;;;;;4992230;28;20019;-67
2021/05/02 03:59:19;;;;;;;176.35;52.90;;;4.60;97.30;;;;;;4989743;28;20406;-66
2021/05/02 04:01:58;;;;;;;188.48;53.38;;;4.60;97.30;;;;;;4989698;28;20022;-67
2021/05/02 04:04:28;;;;;;;179.00;53.65;;;4.60;97.30;;;;;;4981497;28;20014;-67
2021/05/02 04:07:01;;;;;;;186.95;55.42;;;4.60;97.30;;;;;;4987275;28;20023;-67
2021/05/02 04:09:27;;;;;;;164.10;51.50;;;4.50;97.30;;;;;;4988547;28;20113;-67
2021/05/02 04:11:53;;;;;;;163.70;51.22;;;4.40;97.30;;;;;;4989262;28;20027;-67
2021/05/02 04:14:19;;;;;;;171.98;52.63;;;4.50;97.30;;;;;;4990924;28;20026;-67
2021/05/02 04:16:54;;;;;;;175.10;52.08;;;4.50;97.30;;;;;;4992329;28;20466;-68
2021/05/02 04:19:20;;;;;;;178.38;53.58;;;4.50;97.30;;;;;;4985572;28;20053;-67
2021/05/02 04:21:46;;;;;;;175.57;52.05;;;4.50;97.30;;;;;;4990270;28;20030;-67
2021/05/02 04:24:11;;;;;;;165.07;51.33;;;4.60;97.30;;;;;;4991608;28;20034;-67
2021/05/02 04:26:41;;;;;;;171.68;52.17;;;4.60;97.30;;;;;;4991924;28;20030;-67
2021/05/02 04:29:07;;;;;;;162.93;50.38;;;4.60;97.30;;;;;;4972862;28;20039;-67
2021/05/02 04:31:33;;;;;;;158.75;50.47;;;4.60;97.20;;;;;;4975800;28;20041;-67
2021/05/02 04:33:58;;;;;;;150.00;49.30;;;4.60;97.20;;;;;;4990039;28;20062;-68
2021/05/02 04:36:24;;;;;;;159.23;49.45;;;4.60;97.20;;;;;;4991300;28;20395;-67
2021/05/02 04:38:49;;;;;;;143.23;49.55;;;4.60;97.20;;;;;;4981936;28;20034;-68
2021/05/02 04:41:15;;;;;;;142.75;47.78;;;4.60;97.10;;;;;;4981365;28;20117;-68
2021/05/02 04:43:40;;;;;;;135.50;45.50;;;4.60;97.10;;;;;;4987209;28;20029;-68
2021/05/02 04:46:06;;;;;;;135.63;44.40;;;4.60;97.10;;;;;;4965341;28;20053;-67
2021/05/02 04:48:32;;;;;;;118.10;44.08;;;4.60;97.10;;;;;;4981755;28;20498;-66
2021/05/02 04:50:57;;;;;;;121.72;44.83;;;4.70;97.10;;;;;;4975237;28;20037;-67
2021/05/02 04:53:23;;;;;;;121.97;44.10;;;4.70;97.00;;;;;;4970938;28;20424;-67
2021/05/02 04:55:48;;;;;;;97.43;40.70;;;4.70;97.00;;;;;;4976962;28;20032;-66
2021/05/02 04:58:14;;;;;;;110.20;40.58;;;4.60;96.90;;;;;;4990889;28;20052;-67
2021/05/02 05:00:40;;;;;;;105.38;40.20;;;4.70;96.90;;;;;;4982773;28;20030;-67
2021/05/02 05:03:06;;;;;;;94.18;38.40;;;4.70;96.80;;;;;;4968024;28;20534;-67
2021/05/02 05:05:32;;;;;;;98.95;38.80;;;4.60;96.80;;;;;;4983037;28;20034;-68
2021/05/02 05:07:57;;;;;;;98.43;40.05;;;4.60;96.80;;;;;;4989612;28;20052;-67
2021/05/02 05:10:23;;;;;;;90.55;39.08;;;4.70;96.80;;;;;;4981192;28;20089;-67
2021/05/02 05:12:50;;;;;;;93.85;38.35;;;4.60;96.80;;;;;;4980288;28;20038;-66
2021/05/02 05:15:15;;;;;;;90.32;37.88;;;4.70;96.80;;;;;;4990252;28;20110;-67
2021/05/02 05:17:41;;;;;;;97.25;39.65;;;4.60;96.60;;;;;;4972046;28;20023;-67
2021/05/02 05:20:07;;;;;;;87.85;37.28;;;4.60;96.60;;;;;;4984312;28;20165;-67
2021/05/02 05:22:33;;;;;;;99.53;38.65;;;4.60;96.70;;;;;;4984092;28;20038;-67
2021/05/02 05:24:58;;;;;;;101.22;39.67;;;4.60;96.70;;;;;;4975583;28;20026;-67
2021/05/02 05:27:25;;;;;;;94.70;39.75;;;4.60;96.70;;;;;;4980437;28;20032;-67
2021/05/02 05:29:51;;;;;;;86.15;37.03;;;4.60;96.70;;;;;;4976296;28;20058;-68
2021/05/02 05:32:16;;;;;;;90.72;37.75;;;4.50;96.70;;;;;;4989076;28;20046;-67
2021/05/02 05:34:42;;;;;;;94.40;37.42;;;4.50;96.80;;;;;;4988535;28;20244;-67
2021/05/02 05:37:08;;;;;;;88.53;38.05;;;4.60;96.80;;;;;;4987029;28;20117;-67
2021/05/02 05:39:34;;;;;;;84.82;36.17;;;4.60;96.80;;;;;;4987485;28;20373;-68
2021/05/02 05:41:59;;;;;;;91.30;38.00;;;4.60;96.80;;;;;;4988568;28;20477;-67
2021/05/02 05:44:25;;;;;;;94.38;37.40;;;4.60;96.80;;;;;;4989512;28;20034;-67
2021/05/02 05:46:51;;;;;;;90.20;35.78;;;4.60;96.80;;;;;;4981633;28;20089;-68
2021/05/02 05:49:19;;;;;;;92.63;37.28;;;4.70;96.80;;;;;;4975441;28;20121;-67
2021/05/02 05:51:50;;;;;;;86.32;36.38;;;4.80;96.80;;;;;;4988034;28;20041;-68
2021/05/02 05:54:15;;;;;;;;;;;4.80;96.80;;;;;;4989226;28;20042;-67
2021/05/02 05:56:41;;;;;;;87.38;35.65;;;5.00;96.80;;;;;;4987507;28;20337;-67
2021/05/02 05:59:07;;;;;;;79.40;34.33;;;5.10;96.80;;;;;;4980761;28;20022;-67
2021/05/02 06:01:32;;;;;;;72.25;33.80;;;5.20;96.70;;;;;;4984905;28;20062;-67
2021/05/02 06:03:59;;;;;;;63.45;30.90;;;5.30;96.50;;;;;;4981730;28;20030;-67
2021/05/02 06:06:25;;;;;;;51.97;26.58;;;5.40;96.40;;;;;;4985968;28;20058;-67
2021/05/02 06:08:51;;;;;;;51.10;26.15;;;5.40;95.90;;;;;;4972276;28;20030;-67
2021/05/02 06:11:16;;;;;;;49.05;27.13;;;5.50;95.80;;;;;;4987376;28;20491;-66
2021/05/02 06:13:42;;;;;;;46.60;25.45;;;5.70;95.90;;;;;;4991961;28;20034;-67
2021/05/02 06:16:08;;;;;;;38.53;23.13;;;5.70;95.60;;;;;;4990849;28;20034;-67
2021/05/02 06:18:34;;;;;;;35.90;23.67;;;5.70;95.10;;;;;;4984012;28;20023;-67
2021/05/02 06:20:59;;;;;;;32.67;21.42;;;5.80;95.10;;;;;;4989248;28;20034;-67
2021/05/02 06:23:25;;;;;;;27.85;19.05;;;5.80;94.60;;;;;;4984691;28;20134;-68
2021/05/02 06:25:50;;;;;;;28.67;20.38;;;5.90;94.50;;;;;;4967051;28;20029;-67
2021/05/02 06:28:16;;;;;;;28.42;18.48;;;6.00;94.40;;;;;;4986501;28;20037;-67
2021/05/02 06:30:42;;;;;;;26.80;19.13;;;6.10;94.30;;;;;;4987571;28;20033;-68
2021/05/02 06:33:07;;;;;;;25.05;17.30;;;6.20;94.00;;;;;;4981384;28;20088;-68
2021/05/02 06:35:33;;;;;;;28.75;19.17;;;6.30;93.70;;;;;;4989481;28;20030;-68
2021/05/02 06:37:58;;;;;;;24.42;16.45;;;6.40;93.50;;;;;;4978480;28;20023;-67
2021/05/02 06:40:24;;;;;;;22.13;15.80;;;6.40;93.40;;;;;;4985427;28;20037;-67
2021/05/02 06:42:49;;;;;;;22.30;15.68;;;6.50;92.80;;;;;;4984912;28;20019;-67
2021/05/02 06:45:16;;;;;;;19.90;14.57;;;6.60;92.50;;;;;;4979231;28;20038;-67
2021/05/02 06:47:42;;;;;;;19.35;14.35;;;6.80;92.00;;;;;;4983990;28;20418;-67
2021/05/02 06:50:08;;;;;;;21.17;13.90;;;6.90;91.70;;;;;;4982523;28;20035;-67
2021/05/02 06:52:33;;;;;;;17.75;12.52;;;7.00;91.30;;;;;;4981844;28;20053;-68
2021/05/02 06:54:59;;;;;;;17.27;12.30;;;6.90;90.90;;;;;;4983618;28;20043;-67
2021/05/02 06:57:25;;;;;;;15.35;11.75;;;7.00;90.70;;;;;;4986837;28;20034;-67
2021/05/02 06:59:50;;;;;;;15.43;10.63;;;7.00;91.00;;;;;;4986690;28;20479;-67
2021/05/02 07:02:16;;;;;;;14.70;10.50;;;7.30;90.70;;;;;;4963115;28;20050;-67
2021/05/02 07:04:41;;;;;;;17.25;10.93;;;7.30;90.10;;;;;;4986328;28;20403;-67
2021/05/02 07:07:07;;;;;;;16.00;10.60;;;7.60;90.60;;;;;;4979483;28;20117;-68
2021/05/02 07:09:33;;;;;;;14.30;10.50;;;7.70;89.90;;;;;;4981356;28;20034;-67
2021/05/02 07:11:59;;;;;;;15.88;11.27;;;7.70;89.90;;;;;;4983713;28;20076;-68
2021/05/02 07:14:25;;;;;;;12.20;9.90;;;7.60;89.50;;;;;;4982591;28;20140;-67
2021/05/02 07:16:50;;;;;;;14.75;11.05;;;7.50;88.70;;;;;;4986250;28;20063;-68
2021/05/02 07:19:17;;;;;;;14.55;10.50;;;7.90;89.50;;;;;;4981528;28;20026;-67
2021/05/02 07:21:43;;;;;;;14.60;9.93;;;7.60;88.40;;;;;;4986385;28;20072;-68
2021/05/02 07:24:09;;;;;;;15.40;11.13;;;7.50;88.10;;;;;;4987387;28;20442;-68
2021/05/02 07:26:34;;;;;;;15.45;10.77;;;8.00;89.30;;;;;;4983199;28;20030;-69
2021/05/02 07:29:00;;;;;;;15.05;11.50;;;8.00;88.10;;;;;;4982114;28;20037;-68
2021/05/02 07:31:26;;;;;;;15.38;11.52;;;8.00;87.80;;;;;;4989006;28;20402;-68
2021/05/02 07:33:53;;;;;;;14.68;11.30;;;8.20;88.30;;;;;;4980774;28;20084;-68
2021/05/02 07:36:18;;;;;;;16.75;11.10;;;8.10;87.70;;;;;;4980146;28;20072;-68
2021/05/02 07:38:44;;;;;;;14.98;10.25;;;8.40;88.30;;;;;;4985684;28;20031;-68
2021/05/02 07:41:11;;;;;;;12.98;10.02;;;8.40;86.50;;;;;;4985251;28;20399;-67
2021/05/02 07:43:37;;;;;;;11.90;8.70;;;8.70;85.90;;;;;;4986680;28;20489;-68
2021/05/02 07:46:03;;;;;;;15.13;9.90;;;8.40;84.40;;;;;;4984437;28;20034;-68
2021/05/02 07:48:29;;;;;;;12.38;9.73;;;8.30;86.20;;;;;;4985468;28;20031;-68
2021/05/02 07:50:55;;;;;;;12.80;8.60;;;8.70;86.00;;;;;;4988218;28;20041;-69
2021/05/02 07:53:21;;;;;;;15.32;10.40;;;8.60;84.70;;;;;;4988244;28;20161;-68
2021/05/02 07:55:47;;;;;;;14.55;8.05;;;9.30;86.70;;;;;;4986291;28;20126;-69
2021/05/02 07:58:12;;;;;;;10.48;8.00;;;9.60;82.00;;;;;;4980418;28;20335;-68
2021/05/02 08:00:38;;;;;;;9.82;6.68;;;9.80;80.80;;;;;;4977186;28;20019;-70
2021/05/02 08:03:04;;;;;;;13.65;6.85;;;9.60;80.80;;;;;;4975244;28;20460;-68
2021/05/02 08:05:31;;;;;;;9.80;6.47;;;9.60;81.80;;;;;;4977953;28;20406;-69
2021/05/02 08:07:57;;;;;;;7.97;6.25;;;9.70;80.90;;;;;;4986301;28;20026;-68
2021/05/02 08:10:23;;;;;;;9.48;5.82;;;9.40;80.00;;;;;;4979458;28;20030;-69
2021/05/02 08:12:52;;;;;;;8.55;5.90;;;9.40;79.70;;;;;;4986274;28;20434;-68
2021/05/02 08:15:18;;;;;;;9.40;6.05;;;10.00;80.00;;;;;;4987138;28;20036;-70
2021/05/02 08:17:44;;;;;;;10.90;6.15;;;9.90;77.50;;;;;;4987548;28;20379;-69
2021/05/02 08:20:10;;;;;;;9.38;5.97;;;9.70;78.90;;;;;;4987992;28;20458;-68
2021/05/02 08:22:36;;;;;;;8.88;6.25;;;9.90;79.20;;;;;;4981456;28;20414;-68
2021/05/02 08:25:05;;;;;;;10.65;6.47;;;9.60;79.30;;;;;;4982752;28;20038;-69
2021/05/02 08:27:31;;;;;;;11.38;6.00;;;9.10;80.40;;;;;;4983927;28;20118;-69
2021/05/02 08:29:56;;;;;;;8.75;6.22;;;9.00;81.30;;;;;;4986427;28;20026;-68
2021/05/02 08:32:22;;;;;;;7.38;5.03;;;9.70;81.30;;;;;;4975885;28;20137;-69
2021/05/02 08:34:48;;;;;;;6.85;5.13;;;10.10;77.20;;;;;;4967221;28;20451;-68
2021/05/02 08:37:14;;;;;;;9.20;5.68;;;10.40;73.90;;;;;;4981118;28;20050;-69
2021/05/02 08:39:39;;;;;;;8.50;5.28;;;10.50;77.20;;;;;;4975987;28;20043;-69
2021/05/02 08:42:05;;;;;;;8.15;5.55;;;10.20;75.60;;;;;;4977691;28;20443;-68
2021/05/02 08:44:31;;;;;;;8.63;6.00;;;10.00;77.10;;;;;;4985701;28;20415;-68
2021/05/02 08:46:57;;;;;;;9.13;6.20;;;9.80;78.70;;;;;;4981433;28;20034;-69
2021/05/02 08:49:23;;;;;;;9.73;7.15;;;9.40;79.90;;;;;;4981024;28;20095;-69
2021/05/02 08:51:49;;;;;;;8.48;6.47;;;9.10;80.50;;;;;;4975405;28;20577;-68
2021/05/02 08:54:15;;;;;;;12.77;7.38;;;9.10;80.80;;;;;;4973252;28;20038;-69
2021/05/02 08:56:41;;;;;;;10.60;6.90;;;9.00;80.80;;;;;;4980960;28;20027;-69
2021/05/02 08:59:08;;;;;;;13.48;6.60;;;9.10;80.30;;;;;;4978792;28;20023;-68
2021/05/02 09:01:34;;;;;;;8.20;6.38;;;9.30;79.70;;;;;;4978954;28;20023;-69
2021/05/02 09:04:04;;;;;;;11.15;6.63;;;9.90;78.10;;;;;;4974772;28;20044;-69
2021/05/02 09:06:30;;;;;;;8.30;6.22;;;10.40;76.60;;;;;;4981186;28;20022;-69
2021/05/02 09:09:00;;;;;;;9.45;6.15;;;10.80;77.80;;;;;;4977194;28;20160;-68
2021/05/02 09:11:46;;;;;;;7.10;4.97;;;11.00;71.90;;;;;;4986984;28;20111;-69
2021/05/02 09:14:19;;;;;;;8.73;5.03;;;10.90;69.70;;;;;;4974438;28;20490;-69
2021/05/02 09:16:51;;;;;;;6.47;4.55;;;10.70;72.40;;;;;;4986228;28;20030;-69
2021/05/02 09:19:18;;;;;;;9.85;4.50;;;10.40;71.00;;;;;;4988310;28;20085;-69
2021/05/02 09:21:44;;;;;;;6.40;4.97;;;10.10;71.90;;;;;;4979556;28;20033;-69
2021/05/02 09:24:33;;;;;;;7.25;5.18;;;9.90;74.00;;;;;;4984218;28;20062;-69
2021/05/02 09:27:07;;;;;;;7.45;4.05;;;9.80;73.90;;;;;;4982221;28;20379;-69
2021/05/02 09:29:35;;;;;;;5.45;3.78;;;9.60;75.80;;;;;;4983187;28;20149;-70
2021/05/02 09:32:01;;;;;;;8.02;4.60;;;9.30;76.00;;;;;;4986997;28;20497;-69
2021/05/02 09:34:27;;;;;;;9.45;4.93;;;9.30;76.20;;;;;;4978229;28;20065;-68
2021/05/02 09:37:02;;;;;;;6.68;4.88;;;9.10;75.80;;;;;;4986528;28;20030;-69
2021/05/02 09:39:58;;;;;;;7.63;5.18;;;9.00;76.40;;;;;;4976120;28;20255;-68
2021/05/02 09:42:45;;;;;;;8.85;5.68;;;9.00;77.40;;;;;;4980969;28;20342;-69
2021/05/02 09:45:13;;;;;;;11.20;7.00;;;8.90;78.00;;;;;;4980838;28;20110;-69
2021/05/02 09:47:44;;;;;;;10.32;6.85;;;8.80;79.00;;;;;;4957552;28;20031;-68
2021/05/02 09:50:26;;;;;;;10.52;7.07;;;8.70;79.30;;;;;;4986787;28;20022;-68
2021/05/02 09:53:01;;;;;;;10.57;7.20;;;8.60;79.80;;;;;;4988631;28;20038;-69
2021/05/02 09:55:29;;;;;;;9.27;6.93;;;8.60;80.40;;;;;;4990154;28;20038;-67
2021/05/02 09:58:10;;;;;;;13.05;7.63;;;8.50;80.00;;;;;;4990995;28;20053;-68
2021/05/02 10:00:40;;;;;;;11.02;8.55;;;8.70;81.00;;;;;;4986611;28;20036;-68
2021/05/02 10:03:13;;;;;;;10.77;6.88;;;8.80;81.30;;;;;;4984618;28;20093;-68
2021/05/02 10:06:10;;;;;;;10.50;6.93;;;8.70;79.00;;;;;;4977065;28;20117;-68
2021/05/02 10:08:40;;;;;;;11.98;7.13;;;8.90;79.60;;;;;;4979163;28;20181;-68
2021/05/02 10:11:11;;;;;;;11.67;7.03;;;8.90;78.90;;;;;;4985748;28;20053;-67
2021/05/02 10:13:39;;;;;;;11.10;8.20;;;9.10;79.00;;;;;;4978030;28;20022;-68
2021/05/02 10:16:05;;;;;;;11.80;6.82;;;9.50;78.60;;;;;;4979003;28;20158;-68
2021/05/02 10:18:31;;;;;;;12.63;7.80;;;9.80;76.20;;;;;;4974542;28;20034;-69
2021/05/02 10:20:57;;;;;;;9.20;6.30;;;9.90;75.60;;;;;;4981584;28;20452;-68
2021/05/02 10:23:22;;;;;;;10.63;7.28;;;10.50;75.20;;;;;;4987466;28;20031;-69
2021/05/02 10:25:50;;;;;;;9.80;6.22;;;10.60;73.70;;;;;;4987301;28;20399;-68
2021/05/02 10:28:22;;;;;;;8.20;5.85;;;10.80;73.10;;;;;;4980068;28;20495;-68
2021/05/02 10:30:50;;;;;;;11.32;5.88;;;10.60;71.10;;;;;;4981012;28;20042;-68
2021/05/02 10:33:33;;;;;;;8.15;5.40;;;10.80;73.00;;;;;;4972840;28;20034;-68
2021/05/02 10:36:05;;;;;;;8.60;5.90;;;10.70;71.70;;;;;;4983282;28;20034;-69
2021/05/02 10:38:47;;;;;;;11.30;6.30;;;11.00;73.50;;;;;;4981162;28;20154;-68
2021/05/02 10:41:36;;;;;;;8.60;6.38;;;11.00;72.10;;;;;;4984381;28;20034;-68
2021/05/02 10:44:07;;;;;;;10.68;5.38;;;11.20;72.00;;;;;;4982519;28;20027;-69
2021/05/02 10:46:44;;;;;;;8.10;5.05;;;11.40;70.90;;;;;;4973785;28;20026;-68
2021/05/02 10:49:19;;;;;;;8.35;5.03;;;11.30;70.60;;;;;;4976883;28;20034;-68
2021/05/02 10:51:46;;;;;;;7.13;5.20;;;10.80;69.50;;;;;;4986393;28;20444;-68
2021/05/02 10:54:18;;;;;;;7.65;4.97;;;10.50;69.90;;;;;;4985121;28;20045;-68
2021/05/02 10:56:55;;;;;;;5.70;3.58;;;9.90;73.10;;;;;;4991332;28;20074;-68
2021/05/02 10:59:26;;;;;;;5.18;3.63;;;8.90;78.20;;;;;;4985125;28;20436;-68
2021/05/02 11:01:52;;;;;;;;;;;8.40;80.50;;;;;;4990746;28;20506;-68
2021/05/02 11:04:17;;;;;;;5.40;3.75;;;8.20;81.50;;;;;;4985230;28;19968;-69
2021/05/02 11:06:48;;;;;;;6.05;4.10;;;8.00;83.80;;;;;;4984730;28;20112;-68
2021/05/02 11:09:17;;;;;;;5.88;4.47;;;7.90;86.70;;;;;;4982660;28;20027;-68
2021/05/02 11:11:49;;;;;;;7.13;4.90;;;7.70;88.30;;;;;;4982740;28;20035;-67
2021/05/02 11:14:15;;;;;;;5.75;4.53;;;7.60;89.00;;;;;;4985858;28;20089;-67
2021/05/02 11:16:47;;;;;;;7.88;4.95;;;7.50;88.30;;;;;;4974751;28;20026;-68
2021/05/02 11:19:23;;;;;;;7.60;5.57;;;7.60;88.40;;;;;;4983715;28;20478;-67
2021/05/02 11:21:51;;;;;;;8.20;5.18;;;7.80;88.30;;;;;;4964489;28;20505;-67
2021/05/02 11:24:17;;;;;;;8.45;5.15;;;7.80;86.90;;;;;;4984765;28;20420;-67
2021/05/02 11:29:36;;;;;;;8.80;6.15;;;8.20;86.40;;;;;;4989595;28;20494;-67
2021/05/02 11:32:02;;;;;;;8.95;6.38;;;8.50;87.80;;;;;;4976818;28;20164;-67
2021/05/02 11:34:51;;;;;;;8.27;5.70;;;8.80;87.60;;;;;;4987574;28;20063;-70
2021/05/02 11:37:40;;;;;;;6.80;5.30;;;9.10;85.80;;;;;;4990811;28;20502;-67
2021/05/02 11:40:32;;;;;;;9.88;5.18;;;9.60;85.00;;;;;;4980863;28;20168;-68
2021/05/02 11:43:00;;;;;;;10.57;5.10;;;9.70;83.10;;;;;;4978889;28;20035;-68
2021/05/02 11:45:32;;;;;;;8.82;5.18;;;9.70;82.90;;;;;;4980069;28;20100;-67
2021/05/02 11:47:58;;;;;;;9.52;4.68;;;9.80;82.40;;;;;;4982401;28;20034;-67
2021/05/02 11:50:24;;;;;;;7.30;5.35;;;9.80;82.80;;;;;;4975379;28;20042;-66
2021/05/02 11:52:52;;;;;;;6.63;4.88;;;9.70;82.80;;;;;;4987539;28;20025;-67
2021/05/02 11:55:39;;;;;;;5.45;3.67;;;9.80;83.10;;;;;;4990627;28;20029;-70
2021/05/02 11:58:15;;;;;;;5.93;4.05;;;9.60;79.10;;;;;;4986749;28;20038;-68
2021/05/02 12:00:49;;;;;;;6.57;4.82;;;9.60;79.50;;;;;;4978561;28;20034;-68
2021/05/02 12:03:18;;;;;;;7.32;4.60;;;9.50;80.50;;;;;;4966379;28;20030;-67
2021/05/02 12:05:51;;;;;;;5.38;3.83;;;9.40;80.70;;;;;;4986938;28;20026;-68
2021/05/02 12:08:20;;;;;;;6.90;4.22;;;9.60;79.80;;;;;;4986204;28;20054;-68
2021/05/02 12:10:50;;;;;;;4.60;2.97;;;9.60;78.50;;;;;;4984326;28;20030;-68
2021/05/02 12:13:36;;;;;;;4.83;3.20;;;9.70;77.50;;;;;;4967711;28;20386;-68
2021/05/02 12:16:12;;;;;;;4.85;2.85;;;9.90;76.30;;;;;;4986990;28;20282;-68
2021/05/02 12:18:43;;;;;;;4.72;2.92;;;9.80;74.50;;;;;;4985268;28;20503;-67
2021/05/02 12:21:27;;;;;;;3.13;2.40;;;9.90;75.70;;;;;;4982966;28;20038;-68
2021/05/02 12:24:06;;;;;;;4.18;2.78;;;9.80;73.70;;;;;;4985664;28;20076;-68
2021/05/02 12:26:33;;;;;;;4.45;2.88;;;10.00;74.80;;;;;;4986872;28;20045;-67
2021/05/02 12:29:06;;;;;;;6.80;3.65;;;10.10;74.50;;;;;;4981906;28;20025;-68
2021/05/02 12:31:33;;;;;;;7.85;3.83;;;10.40;75.10;;;;;;4970344;28;20030;-66
2021/05/02 12:33:59;;;;;;;6.78;3.78;;;10.60;75.70;;;;;;4985545;28;20507;-69
2021/05/02 12:36:30;;;;;;;7.80;4.13;;;10.50;74.70;;;;;;4986302;28;20092;-68
2021/05/02 12:39:08;;;;;;;7.30;3.88;;;10.30;76.50;;;;;;4984742;28;20030;-68
2021/05/02 12:41:36;;;;;;;7.63;4.15;;;9.80;77.90;;;;;;4984847;28;20034;-68
2021/05/02 12:44:22;;;;;;;7.50;4.15;;;9.80;78.60;;;;;;4983071;28;20157;-67
2021/05/02 12:46:50;;;;;;;7.07;4.10;;;9.30;77.90;;;;;;4983904;28;20054;-68
2021/05/02 12:49:23;;;;;;;7.78;3.95;;;9.10;79.30;;;;;;4987192;28;20073;-68
2021/05/02 12:51:54;;;;;;;6.20;3.08;;;8.90;79.70;;;;;;4980368;28;20225;-67